Newington, VA (22122)

8:57 AM EST on February 27, 2015 (GMT -0500)
VADOT Site_A (Keene Mill Road) | Change Station
CLOSE
Current Station
Personal Weather Station
Location: Newington, VA
Elevation: 278 ft
Nearby Weather Stations

Elev 278 ft 38.74 °N, 77.19 °W | Updated 47 minutes ago

Clear
Clear
30 °F
Feels Like 25 °F
N
5
Wind Variable Wind from NNW
Gusts 10.0 mph

Today
High -- | Low -- °F
--% Chance of Precip.
Yesterday
High -- | Low -- °F
Precip. -- in
6:44 AM 5:59 PM
Waxing Gibbous, 69% visible
Pressure 30.40 in
Visibility 10.0 miles
Clouds Clear
Windchill 25 °F
Dew Point 17 °F
Humidity 59%
Rainfall -999.00 in
Snow Depth Not available.
UV 1 out of 12
Pollen 1.60 out of 12
Air Quality Not available.
Flu Activity Not available.
SPECI KDAA 271336Z AUTO 35007KT 310V030 10SM CLR M01/M09 A3040 RMK AO2 UPE00SNB00E11UPB11

More Conditions Fewer Conditions

Pressure 30.40 in
Visibility 10.0 miles
Clouds Clear
Windchill 25 °F
Dew Point 17 °F
Humidity 59%
Rainfall -999.00 in
Snow Depth Not available.
UV 1 out of 12
Pollen 1.60 out of 12
Air Quality Not available.
Flu Activity Not available.
SPECI KDAA 271336Z AUTO 35007KT 310V030 10SM CLR M01/M09 A3040 RMK AO2 UPE00SNB00E11UPB11

More Conditions Fewer Conditions

10-Day Weather Forecast

Almanac

Astronomy

Feb. 27, 2015 Rise Set
Actual Time
Civil Twilight
Nautical Twilight
Astronomical Twilight
Moon
Length of Visible Light
Length of Day
Tomorrow will be .
, % of the Moon is Illuminated

Today's Extremes

State Highs State Lows

Community

WunderPhotos

Upload Photos

1,800,672 photos uploaded!

WunderBlogs® & News

Nearby

Air Quality

  Air Quality AQ Index Pollutant
Not available.

Snow Depth

Station Depth Elevation

Earthquake Activity

City Distance Mag. Time & Date
Minimum magnitude displayed is 2.5.

Coastal Water Temperatures

Place Temperature

Nearby Weather Stations